sensor_id;sensor_type;location;lat;lon;timestamp;pressure;altitude;pressure_sealevel;temperature;humidity
27052;BME280;14601;49.358;8.256;2022-07-29T00:01:27;100157.84;;;20.59;48.18
27052;BME280;14601;49.358;8.256;2022-07-29T00:04:29;100154.72;;;20.62;48.06
27052;BME280;14601;49.358;8.256;2022-07-29T00:07:31;100152.47;;;20.65;48.05
27052;BME280;14601;49.358;8.256;2022-07-29T00:10:33;100148.72;;;20.66;47.84
27052;BME280;14601;49.358;8.256;2022-07-29T00:13:36;100145.38;;;20.64;48.05
27052;BME280;14601;49.358;8.256;2022-07-29T00:16:38;100140.59;;;20.66;47.90
27052;BME280;14601;49.358;8.256;2022-07-29T00:19:40;100152.66;;;20.64;47.77
27052;BME280;14601;49.358;8.256;2022-07-29T00:22:42;100154.56;;;20.63;47.63
27052;BME280;14601;49.358;8.256;2022-07-29T00:25:44;100143.63;;;20.57;47.53
27052;BME280;14601;49.358;8.256;2022-07-29T00:28:47;100157.59;;;20.54;47.68
27052;BME280;14601;49.358;8.256;2022-07-29T00:31:49;100153.75;;;20.48;47.72
27052;BME280;14601;49.358;8.256;2022-07-29T00:34:51;100152.41;;;20.37;48.09
27052;BME280;14601;49.358;8.256;2022-07-29T00:38:11;100157.19;;;20.35;48.17
27052;BME280;14601;49.358;8.256;2022-07-29T00:41:14;100161.53;;;20.30;48.42
27052;BME280;14601;49.358;8.256;2022-07-29T00:44:17;100159.00;;;20.28;48.46
27052;BME280;14601;49.358;8.256;2022-07-29T00:47:19;100155.19;;;20.22;48.45
27052;BME280;14601;49.358;8.256;2022-07-29T00:50:21;100142.03;;;20.19;48.58
27052;BME280;14601;49.358;8.256;2022-07-29T00:53:25;100139.63;;;20.10;48.94
27052;BME280;14601;49.358;8.256;2022-07-29T00:56:30;100147.78;;;20.10;49.00
27052;BME280;14601;49.358;8.256;2022-07-29T00:59:33;100142.03;;;19.98;49.39
27052;BME280;14601;49.358;8.256;2022-07-29T01:02:35;100148.03;;;19.93;49.69
27052;BME280;14601;49.358;8.256;2022-07-29T01:05:38;100139.44;;;19.90;49.53
27052;BME280;14601;49.358;8.256;2022-07-29T01:08:41;100135.13;;;19.81;49.84
27052;BME280;14601;49.358;8.256;2022-07-29T01:11:43;100139.72;;;19.80;49.80
27052;BME280;14601;49.358;8.256;2022-07-29T01:14:48;100133.84;;;19.76;49.89
27052;BME280;14601;49.358;8.256;2022-07-29T01:17:56;100139.00;;;19.71;50.06
27052;BME280;14601;49.358;8.256;2022-07-29T01:21:21;100131.72;;;19.72;49.80
27052;BME280;14601;49.358;8.256;2022-07-29T01:24:46;100123.53;;;19.65;50.18
27052;BME280;14601;49.358;8.256;2022-07-29T01:28:14;100124.25;;;19.74;49.51
27052;BME280;14601;49.358;8.256;2022-07-29T01:31:22;100126.50;;;19.70;49.74
27052;BME280;14601;49.358;8.256;2022-07-29T01:34:31;100120.03;;;19.71;49.59
27052;BME280;14601;49.358;8.256;2022-07-29T01:37:41;100120.69;;;19.59;50.06
27052;BME280;14601;49.358;8.256;2022-07-29T01:40:47;100119.38;;;19.55;50.09
27052;BME280;14601;49.358;8.256;2022-07-29T01:43:53;100119.38;;;19.55;50.22
27052;BME280;14601;49.358;8.256;2022-07-29T01:47:02;100115.94;;;19.46;50.38
27052;BME280;14601;49.358;8.256;2022-07-29T01:50:10;100117.16;;;19.43;50.50
27052;BME280;14601;49.358;8.256;2022-07-29T01:53:18;100116.91;;;19.38;50.78
27052;BME280;14601;49.358;8.256;2022-07-29T01:56:24;100116.63;;;19.33;50.93
27052;BME280;14601;49.358;8.256;2022-07-29T01:59:30;100123.72;;;19.34;50.79
27052;BME280;14601;49.358;8.256;2022-07-29T02:02:37;100125.59;;;19.34;51.05
27052;BME280;14601;49.358;8.256;2022-07-29T02:05:42;100122.22;;;19.32;50.94
27052;BME280;14601;49.358;8.256;2022-07-29T02:08:46;100121.38;;;19.31;51.06
27052;BME280;14601;49.358;8.256;2022-07-29T02:11:52;100124.56;;;19.35;51.06
27052;BME280;14601;49.358;8.256;2022-07-29T02:14:58;100118.41;;;19.26;50.98
27052;BME280;14601;49.358;8.256;2022-07-29T02:18:06;100111.31;;;19.25;50.89
27052;BME280;14601;49.358;8.256;2022-07-29T02:21:09;100124.19;;;19.23;51.14
27052;BME280;14601;49.358;8.256;2022-07-29T02:24:14;100109.34;;;19.19;51.26
27052;BME280;14601;49.358;8.256;2022-07-29T02:27:18;100113.56;;;19.21;51.48
27052;BME280;14601;49.358;8.256;2022-07-29T02:30:22;100119.66;;;19.09;51.86
27052;BME280;14601;49.358;8.256;2022-07-29T02:33:26;100117.41;;;19.12;51.65
27052;BME280;14601;49.358;8.256;2022-07-29T02:36:29;100110.47;;;19.10;51.71
27052;BME280;14601;49.358;8.256;2022-07-29T02:39:31;100116.25;;;19.07;51.95
27052;BME280;14601;49.358;8.256;2022-07-29T02:42:35;100114.31;;;19.00;52.12
27052;BME280;14601;49.358;8.256;2022-07-29T02:45:38;100113.66;;;18.98;52.08
27052;BME280;14601;49.358;8.256;2022-07-29T02:48:48;100115.53;;;18.98;52.13
27052;BME280;14601;49.358;8.256;2022-07-29T02:51:55;100117.03;;;19.00;51.82
27052;BME280;14601;49.358;8.256;2022-07-29T02:55:01;100123.44;;;18.99;51.90
27052;BME280;14601;49.358;8.256;2022-07-29T02:58:12;100123.66;;;18.98;51.79
27052;BME280;14601;49.358;8.256;2022-07-29T03:01:19;100115.88;;;18.95;51.94
27052;BME280;14601;49.358;8.256;2022-07-29T03:04:24;100121.41;;;18.87;51.87
27052;BME280;14601;49.358;8.256;2022-07-29T03:07:29;100108.78;;;18.79;52.01
27052;BME280;14601;49.358;8.256;2022-07-29T03:10:31;100122.22;;;18.87;51.86
27052;BME280;14601;49.358;8.256;2022-07-29T03:13:35;100110.09;;;18.83;51.67
27052;BME280;14601;49.358;8.256;2022-07-29T03:16:37;100116.66;;;18.89;51.70
27052;BME280;14601;49.358;8.256;2022-07-29T03:19:40;100122.63;;;18.84;51.95
27052;BME280;14601;49.358;8.256;2022-07-29T03:22:43;100118.59;;;18.80;51.93
27052;BME280;14601;49.358;8.256;2022-07-29T03:25:47;100124.28;;;18.85;51.86
27052;BME280;14601;49.358;8.256;2022-07-29T03:28:49;100111.31;;;18.81;51.77
27052;BME280;14601;49.358;8.256;2022-07-29T03:31:51;100104.97;;;18.73;52.10
27052;BME280;14601;49.358;8.256;2022-07-29T03:34:54;100121.13;;;18.82;51.92
27052;BME280;14601;49.358;8.256;2022-07-29T03:37:56;100112.25;;;18.73;52.06
27052;BME280;14601;49.358;8.256;2022-07-29T03:41:00;100120.72;;;18.70;52.39
27052;BME280;14601;49.358;8.256;2022-07-29T03:44:05;100128.16;;;18.68;52.30
27052;BME280;14601;49.358;8.256;2022-07-29T03:47:08;100126.66;;;18.65;52.28
27052;BME280;14601;49.358;8.256;2022-07-29T03:50:14;100130.47;;;18.56;52.45
27052;BME280;14601;49.358;8.256;2022-07-29T03:53:17;100128.31;;;18.51;52.61
27052;BME280;14601;49.358;8.256;2022-07-29T03:56:21;100117.13;;;18.54;52.45
27052;BME280;14601;49.358;8.256;2022-07-29T03:59:23;100121.69;;;18.54;52.45
27052;BME280;14601;49.358;8.256;2022-07-29T04:02:25;100123.38;;;18.55;52.39
27052;BME280;14601;49.358;8.256;2022-07-29T04:05:29;100122.72;;;18.53;52.16
27052;BME280;14601;49.358;8.256;2022-07-29T04:08:31;100122.38;;;18.56;52.30
27052;BME280;14601;49.358;8.256;2022-07-29T04:11:33;100132.06;;;18.65;52.22
27052;BME280;14601;49.358;8.256;2022-07-29T04:14:35;100123.97;;;18.65;52.12
27052;BME280;14601;49.358;8.256;2022-07-29T04:17:37;100125.53;;;18.60;52.32
27052;BME280;14601;49.358;8.256;2022-07-29T04:20:40;100122.75;;;18.68;52.10
27052;BME280;14601;49.358;8.256;2022-07-29T04:23:42;100123.13;;;18.65;52.02
27052;BME280;14601;49.358;8.256;2022-07-29T04:26:46;100133.06;;;18.72;51.98
27052;BME280;14601;49.358;8.256;2022-07-29T04:29:48;100132.31;;;18.78;51.65
27052;BME280;14601;49.358;8.256;2022-07-29T04:32:50;100130.63;;;18.77;51.87
27052;BME280;14601;49.358;8.256;2022-07-29T04:35:53;100145.94;;;18.85;51.58
27052;BME280;14601;49.358;8.256;2022-07-29T04:38:55;100132.78;;;18.82;51.53
27052;BME280;14601;49.358;8.256;2022-07-29T04:41:57;100142.59;;;18.98;51.22
27052;BME280;14601;49.358;8.256;2022-07-29T04:44:59;100138.69;;;19.00;50.99
27052;BME280;14601;49.358;8.256;2022-07-29T04:48:00;100137.91;;;19.07;50.76
27052;BME280;14601;49.358;8.256;2022-07-29T04:51:04;100144.84;;;19.09;50.69
27052;BME280;14601;49.358;8.256;2022-07-29T04:54:06;100145.94;;;19.15;50.56
27052;BME280;14601;49.358;8.256;2022-07-29T04:57:07;100139.91;;;19.13;50.93
27052;BME280;14601;49.358;8.256;2022-07-29T05:00:10;100143.16;;;19.23;50.80
27052;BME280;14601;49.358;8.256;2022-07-29T05:03:12;100146.53;;;19.25;50.93
27052;BME280;14601;49.358;8.256;2022-07-29T05:06:15;100148.50;;;19.16;51.41
27052;BME280;14601;49.358;8.256;2022-07-29T05:09:17;100149.50;;;19.30;51.35
27052;BME280;14601;49.358;8.256;2022-07-29T05:12:19;100148.72;;;19.36;51.17
27052;BME280;14601;49.358;8.256;2022-07-29T05:15:20;100148.94;;;19.35;51.52
27052;BME280;14601;49.358;8.256;2022-07-29T05:18:22;100153.25;;;19.29;51.28
27052;BME280;14601;49.358;8.256;2022-07-29T05:21:25;100152.84;;;19.32;51.24
27052;BME280;14601;49.358;8.256;2022-07-29T05:24:27;100146.97;;;19.43;51.09
27052;BME280;14601;49.358;8.256;2022-07-29T05:27:29;100150.97;;;19.47;51.12
27052;BME280;14601;49.358;8.256;2022-07-29T05:30:31;100165.19;;;19.49;50.90
27052;BME280;14601;49.358;8.256;2022-07-29T05:33:33;100165.19;;;19.64;50.19
27052;BME280;14601;49.358;8.256;2022-07-29T05:36:36;100160.94;;;19.76;49.83
27052;BME280;14601;49.358;8.256;2022-07-29T05:39:38;100156.44;;;19.84;49.95
27052;BME280;14601;49.358;8.256;2022-07-29T05:42:39;100162.78;;;19.91;49.64
27052;BME280;14601;49.358;8.256;2022-07-29T05:45:41;100157.72;;;20.03;49.44
27052;BME280;14601;49.358;8.256;2022-07-29T05:48:43;100155.50;;;20.13;49.03
27052;BME280;14601;49.358;8.256;2022-07-29T05:51:46;100153.13;;;20.24;49.41
27052;BME280;14601;49.358;8.256;2022-07-29T05:54:49;100159.25;;;20.33;48.99
27052;BME280;14601;49.358;8.256;2022-07-29T05:57:51;100161.53;;;20.51;48.92
27052;BME280;14601;49.358;8.256;2022-07-29T06:00:53;100169.94;;;20.84;48.56
27052;BME280;14601;49.358;8.256;2022-07-29T06:03:59;100175.13;;;21.07;47.98
27052;BME280;14601;49.358;8.256;2022-07-29T06:07:02;100171.31;;;21.02;48.82
27052;BME280;14601;49.358;8.256;2022-07-29T06:10:05;100166.69;;;20.95;48.90
27052;BME280;14601;49.358;8.256;2022-07-29T06:13:07;100166.19;;;20.85;49.30
27052;BME280;14601;49.358;8.256;2022-07-29T06:16:09;100171.28;;;21.30;49.39
27052;BME280;14601;49.358;8.256;2022-07-29T06:19:11;100173.44;;;21.76;48.54
27052;BME280;14601;49.358;8.256;2022-07-29T06:22:16;100176.88;;;22.11;48.59
27052;BME280;14601;49.358;8.256;2022-07-29T06:25:18;100178.44;;;22.46;47.83
27052;BME280;14601;49.358;8.256;2022-07-29T06:28:20;100176.16;;;22.57;48.03
27052;BME280;14601;49.358;8.256;2022-07-29T06:31:22;100183.25;;;22.44;49.26
27052;BME280;14601;49.358;8.256;2022-07-29T06:34:23;100179.50;;;22.65;49.46
27052;BME280;14601;49.358;8.256;2022-07-29T06:37:27;100187.03;;;22.83;47.72
27052;BME280;14601;49.358;8.256;2022-07-29T06:40:29;100181.19;;;22.73;48.63
27052;BME280;14601;49.358;8.256;2022-07-29T06:43:48;100186.19;;;22.89;49.56
27052;BME280;14601;49.358;8.256;2022-07-29T06:46:51;100188.91;;;22.83;49.17
27052;BME280;14601;49.358;8.256;2022-07-29T06:49:55;100196.47;;;22.94;49.46
27052;BME280;14601;49.358;8.256;2022-07-29T06:52:58;100199.75;;;23.29;49.97
27052;BME280;14601;49.358;8.256;2022-07-29T06:56:01;100194.41;;;23.81;48.50
27052;BME280;14601;49.358;8.256;2022-07-29T06:59:03;100199.97;;;24.37;47.50
27052;BME280;14601;49.358;8.256;2022-07-29T07:02:06;100202.91;;;24.36;46.74
27052;BME280;14601;49.358;8.256;2022-07-29T07:05:08;100205.50;;;24.24;47.21
27052;BME280;14601;49.358;8.256;2022-07-29T07:08:12;100205.13;;;24.14;47.22
27052;BME280;14601;49.358;8.256;2022-07-29T07:11:14;100213.28;;;24.27;46.76
27052;BME280;14601;49.358;8.256;2022-07-29T07:14:16;100208.56;;;25.23;45.78
27052;BME280;14601;49.358;8.256;2022-07-29T07:17:18;100211.38;;;25.34;47.16
27052;BME280;14601;49.358;8.256;2022-07-29T07:20:20;100212.00;;;25.73;45.48
27052;BME280;14601;49.358;8.256;2022-07-29T07:23:23;100215.31;;;23.93;50.08
27052;BME280;14601;49.358;8.256;2022-07-29T07:26:25;100206.72;;;24.35;48.36
27052;BME280;14601;49.358;8.256;2022-07-29T07:29:27;100211.44;;;23.56;51.50
27052;BME280;14601;49.358;8.256;2022-07-29T07:32:29;100214.56;;;25.13;46.89
27052;BME280;14601;49.358;8.256;2022-07-29T07:35:31;100212.75;;;25.99;44.92
27052;BME280;14601;49.358;8.256;2022-07-29T07:38:35;100211.44;;;27.15;41.91
27052;BME280;14601;49.358;8.256;2022-07-29T07:41:37;100213.19;;;26.14;43.95
27052;BME280;14601;49.358;8.256;2022-07-29T07:44:40;100208.66;;;25.71;44.60
27052;BME280;14601;49.358;8.256;2022-07-29T07:47:42;100212.31;;;25.65;45.27
27052;BME280;14601;49.358;8.256;2022-07-29T07:50:44;100202.34;;;25.34;45.90
27052;BME280;14601;49.358;8.256;2022-07-29T07:53:47;100211.41;;;24.84;47.05
27052;BME280;14601;49.358;8.256;2022-07-29T07:56:50;100209.97;;;24.50;48.08
27052;BME280;14601;49.358;8.256;2022-07-29T07:59:52;100211.41;;;24.84;47.01
27052;BME280;14601;49.358;8.256;2022-07-29T08:02:54;100209.69;;;25.15;45.93
27052;BME280;14601;49.358;8.256;2022-07-29T08:05:56;100204.94;;;25.47;45.50
27052;BME280;14601;49.358;8.256;2022-07-29T08:08:59;100207.09;;;26.12;43.53
27052;BME280;14601;49.358;8.256;2022-07-29T08:12:02;100205.38;;;26.59;42.57
27052;BME280;14601;49.358;8.256;2022-07-29T08:15:07;100208.34;;;27.87;40.14
27052;BME280;14601;49.358;8.256;2022-07-29T08:18:09;100205.69;;;28.32;38.50
27052;BME280;14601;49.358;8.256;2022-07-29T08:21:11;100194.16;;;29.97;35.98
27052;BME280;14601;49.358;8.256;2022-07-29T08:24:14;100204.09;;;30.20;35.30
27052;BME280;14601;49.358;8.256;2022-07-29T08:27:34;100210.56;;;29.65;36.02
27052;BME280;14601;49.358;8.256;2022-07-29T08:30:36;100205.88;;;31.81;32.40
27052;BME280;14601;49.358;8.256;2022-07-29T08:33:38;100194.94;;;34.19;28.31
27052;BME280;14601;49.358;8.256;2022-07-29T08:36:40;100197.78;;;36.50;24.71
27052;BME280;14601;49.358;8.256;2022-07-29T08:39:45;100205.53;;;33.32;29.54
27052;BME280;14601;49.358;8.256;2022-07-29T08:42:46;100206.28;;;30.45;33.69
27052;BME280;14601;49.358;8.256;2022-07-29T08:45:50;100208.91;;;30.08;35.09
27052;BME280;14601;49.358;8.256;2022-07-29T08:48:52;100195.06;;;33.03;30.68
27052;BME280;14601;49.358;8.256;2022-07-29T08:51:55;100197.38;;;35.04;27.78
27052;BME280;14601;49.358;8.256;2022-07-29T08:54:59;100199.44;;;34.88;28.22
27052;BME280;14601;49.358;8.256;2022-07-29T08:58:01;100204.56;;;33.77;29.35
27052;BME280;14601;49.358;8.256;2022-07-29T09:01:03;100209.13;;;31.67;33.25
27052;BME280;14601;49.358;8.256;2022-07-29T09:04:10;100203.94;;;36.09;26.83
27052;BME280;14601;49.358;8.256;2022-07-29T09:07:14;100212.72;;;34.91;27.64
27052;BME280;14601;49.358;8.256;2022-07-29T09:10:18;100204.69;;;35.48;26.81
27052;BME280;14601;49.358;8.256;2022-07-29T09:13:20;100201.13;;;35.90;26.29
27052;BME280;14601;49.358;8.256;2022-07-29T09:16:22;100212.44;;;34.64;27.54
27052;BME280;14601;49.358;8.256;2022-07-29T09:19:26;100213.28;;;33.25;29.93
27052;BME280;14601;49.358;8.256;2022-07-29T09:22:29;100212.47;;;32.83;29.96
27052;BME280;14601;49.358;8.256;2022-07-29T09:25:34;100209.41;;;33.31;29.69
27052;BME280;14601;49.358;8.256;2022-07-29T09:28:41;100204.56;;;31.36;32.45
27052;BME280;14601;49.358;8.256;2022-07-29T09:31:44;100208.06;;;31.79;32.34
27052;BME280;14601;49.358;8.256;2022-07-29T09:34:46;100211.81;;;31.10;33.12
27052;BME280;14601;49.358;8.256;2022-07-29T09:37:49;100223.06;;;28.83;36.99
27052;BME280;14601;49.358;8.256;2022-07-29T09:40:57;100225.66;;;29.79;35.72
27052;BME280;14601;49.358;8.256;2022-07-29T09:43:59;100224.31;;;29.82;35.65
27052;BME280;14601;49.358;8.256;2022-07-29T09:47:03;100222.50;;;29.71;35.86
27052;BME280;14601;49.358;8.256;2022-07-29T09:50:07;100213.31;;;28.59;37.77
27052;BME280;14601;49.358;8.256;2022-07-29T09:53:09;100211.56;;;29.20;37.18
27052;BME280;14601;49.358;8.256;2022-07-29T09:56:13;100202.44;;;30.19;35.07
27052;BME280;14601;49.358;8.256;2022-07-29T09:59:15;100211.16;;;30.65;34.22
27052;BME280;14601;49.358;8.256;2022-07-29T10:02:17;100209.94;;;28.86;37.35
27052;BME280;14601;49.358;8.256;2022-07-29T10:05:21;100217.75;;;29.27;36.94
27052;BME280;14601;49.358;8.256;2022-07-29T10:08:25;100211.25;;;29.55;36.17
27052;BME280;14601;49.358;8.256;2022-07-29T10:11:28;100195.06;;;32.42;31.18
27052;BME280;14601;49.358;8.256;2022-07-29T10:14:31;100191.69;;;34.56;28.16
27052;BME280;14601;49.358;8.256;2022-07-29T10:17:34;100189.75;;;36.81;24.74
27052;BME280;14601;49.358;8.256;2022-07-29T10:20:36;100185.44;;;36.89;24.78
27052;BME280;14601;49.358;8.256;2022-07-29T10:23:38;100191.13;;;34.54;26.71
27052;BME280;14601;49.358;8.256;2022-07-29T10:26:43;100196.94;;;31.58;31.29
27052;BME280;14601;49.358;8.256;2022-07-29T10:29:47;100190.25;;;31.07;32.76
27052;BME280;14601;49.358;8.256;2022-07-29T10:33:11;100184.19;;;30.72;33.18
27052;BME280;14601;49.358;8.256;2022-07-29T10:36:27;100185.66;;;32.73;30.07
27052;BME280;14601;49.358;8.256;2022-07-29T10:39:43;100187.63;;;30.85;32.59
27052;BME280;14601;49.358;8.256;2022-07-29T10:42:52;100184.97;;;30.14;34.46
27052;BME280;14601;49.358;8.256;2022-07-29T10:45:56;100189.72;;;29.30;35.88
27052;BME280;14601;49.358;8.256;2022-07-29T10:49:09;100185.25;;;29.07;36.77
27052;BME280;14601;49.358;8.256;2022-07-29T10:52:12;100175.91;;;29.25;36.46
27052;BME280;14601;49.358;8.256;2022-07-29T10:55:35;100175.41;;;30.43;34.21
27052;BME280;14601;49.358;8.256;2022-07-29T10:58:42;100173.19;;;29.69;35.10
27052;BME280;14601;49.358;8.256;2022-07-29T11:01:46;100169.88;;;29.67;35.35
27052;BME280;14601;49.358;8.256;2022-07-29T11:05:03;100169.53;;;29.86;35.43
27052;BME280;14601;49.358;8.256;2022-07-29T11:08:20;100167.56;;;30.62;34.09
27052;BME280;14601;49.358;8.256;2022-07-29T11:11:33;100169.94;;;30.21;34.61
27052;BME280;14601;49.358;8.256;2022-07-29T11:14:56;100171.59;;;29.95;34.88
27052;BME280;14601;49.358;8.256;2022-07-29T11:18:07;100171.59;;;30.49;34.16
27052;BME280;14601;49.358;8.256;2022-07-29T11:21:35;100159.63;;;31.45;32.57
27052;BME280;14601;49.358;8.256;2022-07-29T11:24:37;100155.59;;;31.21;32.94
27052;BME280;14601;49.358;8.256;2022-07-29T11:27:39;100154.66;;;30.36;34.24
27052;BME280;14601;49.358;8.256;2022-07-29T11:30:51;100163.50;;;29.89;35.56
27052;BME280;14601;49.358;8.256;2022-07-29T11:33:53;100160.94;;;30.04;34.88
27052;BME280;14601;49.358;8.256;2022-07-29T11:37:17;100164.72;;;29.54;35.76
27052;BME280;14601;49.358;8.256;2022-07-29T11:40:20;100164.81;;;29.59;35.98
27052;BME280;14601;49.358;8.256;2022-07-29T11:43:46;100157.66;;;30.34;34.71
27052;BME280;14601;49.358;8.256;2022-07-29T11:46:50;100149.47;;;30.39;34.77
27052;BME280;14601;49.358;8.256;2022-07-29T11:49:52;100150.50;;;29.18;35.66
27052;BME280;14601;49.358;8.256;2022-07-29T11:52:55;100145.97;;;29.51;35.60
27052;BME280;14601;49.358;8.256;2022-07-29T11:55:58;100161.34;;;28.74;36.89
27052;BME280;14601;49.358;8.256;2022-07-29T11:59:04;100141.69;;;28.99;34.94
27052;BME280;14601;49.358;8.256;2022-07-29T12:02:08;100147.94;;;29.77;33.81
27052;BME280;14601;49.358;8.256;2022-07-29T12:05:11;100155.56;;;29.48;34.58
27052;BME280;14601;49.358;8.256;2022-07-29T12:08:15;100144.78;;;29.03;34.34
27052;BME280;14601;49.358;8.256;2022-07-29T12:11:19;100149.44;;;29.41;33.42
27052;BME280;14601;49.358;8.256;2022-07-29T12:14:26;100162.50;;;28.95;34.46
27052;BME280;14601;49.358;8.256;2022-07-29T12:17:31;100154.38;;;29.61;33.80
27052;BME280;14601;49.358;8.256;2022-07-29T12:20:33;100152.59;;;29.72;32.93
27052;BME280;14601;49.358;8.256;2022-07-29T12:23:35;100157.53;;;29.53;33.00
27052;BME280;14601;49.358;8.256;2022-07-29T12:26:49;100164.03;;;29.42;33.97
27052;BME280;14601;49.358;8.256;2022-07-29T12:29:58;100153.63;;;29.27;33.99
27052;BME280;14601;49.358;8.256;2022-07-29T12:33:10;100159.19;;;28.59;34.38
27052;BME280;14601;49.358;8.256;2022-07-29T12:36:13;100158.75;;;28.51;35.01
27052;BME280;14601;49.358;8.256;2022-07-29T12:39:15;100154.88;;;28.18;35.92
27052;BME280;14601;49.358;8.256;2022-07-29T12:42:17;100148.78;;;28.45;35.39
27052;BME280;14601;49.358;8.256;2022-07-29T12:45:28;100140.91;;;29.04;34.11
27052;BME280;14601;49.358;8.256;2022-07-29T12:48:35;100128.03;;;29.26;33.34
27052;BME280;14601;49.358;8.256;2022-07-29T12:51:39;100128.53;;;29.62;32.73
27052;BME280;14601;49.358;8.256;2022-07-29T12:54:46;100127.09;;;29.60;32.68
27052;BME280;14601;49.358;8.256;2022-07-29T12:57:50;100130.50;;;29.06;33.65
27052;BME280;14601;49.358;8.256;2022-07-29T13:01:00;100131.09;;;29.08;33.82
27052;BME280;14601;49.358;8.256;2022-07-29T13:04:04;100131.19;;;29.35;32.83
27052;BME280;14601;49.358;8.256;2022-07-29T13:07:07;100122.63;;;30.02;32.15
27052;BME280;14601;49.358;8.256;2022-07-29T13:10:11;100128.22;;;29.20;32.88
27052;BME280;14601;49.358;8.256;2022-07-29T13:13:15;100127.25;;;30.51;30.77
27052;BME280;14601;49.358;8.256;2022-07-29T13:16:19;100130.19;;;31.82;29.32
27052;BME280;14601;49.358;8.256;2022-07-29T13:19:32;100130.53;;;31.85;29.20
27052;BME280;14601;49.358;8.256;2022-07-29T13:22:34;100123.97;;;32.53;27.67
27052;BME280;14601;49.358;8.256;2022-07-29T13:25:36;100122.81;;;32.28;28.29
27052;BME280;14601;49.358;8.256;2022-07-29T13:28:41;100131.13;;;32.28;28.18
27052;BME280;14601;49.358;8.256;2022-07-29T13:31:43;100128.31;;;31.87;28.16
27052;BME280;14601;49.358;8.256;2022-07-29T13:34:46;100126.84;;;31.64;28.54
27052;BME280;14601;49.358;8.256;2022-07-29T13:37:48;100130.38;;;30.33;29.31
27052;BME280;14601;49.358;8.256;2022-07-29T13:40:50;100126.44;;;30.23;29.52
27052;BME280;14601;49.358;8.256;2022-07-29T13:43:52;100129.00;;;29.37;30.60
27052;BME280;14601;49.358;8.256;2022-07-29T13:46:54;100122.22;;;29.45;31.15
27052;BME280;14601;49.358;8.256;2022-07-29T13:49:58;100122.25;;;29.94;31.05
27052;BME280;14601;49.358;8.256;2022-07-29T13:52:59;100116.00;;;30.63;29.76
27052;BME280;14601;49.358;8.256;2022-07-29T13:56:01;100120.00;;;30.45;30.12
27052;BME280;14601;49.358;8.256;2022-07-29T13:59:06;100114.66;;;30.65;30.29
27052;BME280;14601;49.358;8.256;2022-07-29T14:02:10;100111.22;;;32.06;28.27
27052;BME280;14601;49.358;8.256;2022-07-29T14:05:14;100109.81;;;32.08;28.66
27052;BME280;14601;49.358;8.256;2022-07-29T14:08:15;100099.13;;;31.39;28.27
27052;BME280;14601;49.358;8.256;2022-07-29T14:11:17;100099.91;;;32.17;28.13
27052;BME280;14601;49.358;8.256;2022-07-29T14:14:19;100097.06;;;33.14;26.82
27052;BME280;14601;49.358;8.256;2022-07-29T14:17:21;100097.56;;;33.21;26.02
27052;BME280;14601;49.358;8.256;2022-07-29T14:20:25;100104.84;;;32.20;26.43
27052;BME280;14601;49.358;8.256;2022-07-29T14:23:28;100100.44;;;32.65;25.28
27052;BME280;14601;49.358;8.256;2022-07-29T14:26:30;100097.53;;;31.48;27.01
27052;BME280;14601;49.358;8.256;2022-07-29T14:29:32;100105.53;;;31.55;26.35
27052;BME280;14601;49.358;8.256;2022-07-29T14:32:34;100095.13;;;31.77;26.18
27052;BME280;14601;49.358;8.256;2022-07-29T14:35:38;100092.75;;;32.47;25.82
27052;BME280;14601;49.358;8.256;2022-07-29T14:38:40;100090.19;;;32.76;25.22
27052;BME280;14601;49.358;8.256;2022-07-29T14:41:42;100087.09;;;31.75;26.20
27052;BME280;14601;49.358;8.256;2022-07-29T14:44:44;100088.59;;;30.46;28.14
27052;BME280;14601;49.358;8.256;2022-07-29T14:47:46;100084.47;;;30.86;27.17
27052;BME280;14601;49.358;8.256;2022-07-29T14:50:51;100079.91;;;31.07;26.94
27052;BME280;14601;49.358;8.256;2022-07-29T14:53:53;100090.44;;;30.35;27.76
27052;BME280;14601;49.358;8.256;2022-07-29T14:56:56;100096.91;;;30.88;27.35
27052;BME280;14601;49.358;8.256;2022-07-29T14:59:58;100089.63;;;31.19;26.63
27052;BME280;14601;49.358;8.256;2022-07-29T15:03:00;100089.25;;;31.58;26.06
27052;BME280;14601;49.358;8.256;2022-07-29T15:06:04;100089.59;;;31.82;25.48
27052;BME280;14601;49.358;8.256;2022-07-29T15:09:06;100084.84;;;31.67;25.83
27052;BME280;14601;49.358;8.256;2022-07-29T15:12:08;100090.13;;;31.79;25.65
27052;BME280;14601;49.358;8.256;2022-07-29T15:15:10;100098.34;;;30.96;26.42
27052;BME280;14601;49.358;8.256;2022-07-29T15:18:12;100089.84;;;31.70;25.74
27052;BME280;14601;49.358;8.256;2022-07-29T15:21:15;100092.06;;;31.68;25.61
27052;BME280;14601;49.358;8.256;2022-07-29T15:24:18;100095.16;;;31.87;25.13
27052;BME280;14601;49.358;8.256;2022-07-29T15:27:20;100087.34;;;31.01;26.14
27052;BME280;14601;49.358;8.256;2022-07-29T15:30:22;100089.47;;;31.41;25.82
27052;BME280;14601;49.358;8.256;2022-07-29T15:33:24;100093.66;;;31.59;25.42
27052;BME280;14601;49.358;8.256;2022-07-29T15:36:28;100088.13;;;31.54;25.30
27052;BME280;14601;49.358;8.256;2022-07-29T15:39:30;100097.88;;;31.19;25.64
27052;BME280;14601;49.358;8.256;2022-07-29T15:42:32;100089.16;;;31.33;25.53
27052;BME280;14601;49.358;8.256;2022-07-29T15:45:36;100087.31;;;31.59;25.15
27052;BME280;14601;49.358;8.256;2022-07-29T15:48:39;100081.63;;;31.96;24.46
27052;BME280;14601;49.358;8.256;2022-07-29T15:51:42;100093.81;;;32.10;24.43
27052;BME280;14601;49.358;8.256;2022-07-29T15:54:45;100088.22;;;31.12;25.49
27052;BME280;14601;49.358;8.256;2022-07-29T15:57:47;100080.91;;;31.33;25.38
27052;BME280;14601;49.358;8.256;2022-07-29T16:00:49;100086.59;;;30.73;25.65
27052;BME280;14601;49.358;8.256;2022-07-29T16:03:50;100089.78;;;30.97;25.59